Time;durP1;ratioP1;P1;durP2;ratioP2;P2;SDS_P1;SDS_P2;PMS_P1;PMS_P2;Temp;Humidity;BMP_temperature;BMP_pressure;BME280_temperature;BME280_humidity;BME280_pressure;Samples;Min_cycle;Max_cycle;Signal;HPM_P1;HPM_P2
2021/08/04 00:00:13;;;;;;;;;;;;;;;13.68;100.00;95785.47;1053021;28;19912;-67
2021/08/04 00:00:43;;;;;;;;;;;;;;;13.69;100.00;95792.44;1052752;28;19966;-67
2021/08/04 00:01:13;;;;;;;;;;;;;;;13.71;100.00;95797.50;1053012;28;19916;-67
2021/08/04 00:01:44;;;;;;;;;;;;;;;13.72;100.00;95797.22;1053089;28;19912;-67
2021/08/04 00:02:14;;;;;;;;;;;;;;;13.73;100.00;95792.66;1053072;28;19912;-66
2021/08/04 00:02:44;;;;;;;;;;;;;;;13.70;100.00;95799.38;1053160;28;19912;-67
2021/08/04 00:03:15;;;;;;;;;;;;;;;13.71;100.00;95798.28;1053089;28;20023;-67
2021/08/04 00:03:45;;;;;;;;;;;;;;;13.71;100.00;95797.50;1053110;28;19909;-67
2021/08/04 00:04:15;;;;;;;;;;;;;;;13.69;100.00;95797.00;1053059;28;19912;-67
2021/08/04 00:04:45;;;;;;;;;;;;;;;13.70;100.00;95793.22;1048616;28;19913;-67
2021/08/04 00:05:16;;;;;;;;;;;;;;;13.71;100.00;95794.81;1048487;28;20285;-67
2021/08/04 00:05:46;;;;;;;;;;;;;;;13.71;100.00;95798.28;1048543;28;19917;-67
2021/08/04 00:06:17;;;;;;;;;;;;;;;13.71;100.00;95797.50;1048533;28;19909;-67
2021/08/04 00:06:47;;;;;;;;;;;;;;;13.71;100.00;95789.44;1053126;28;19916;-67
2021/08/04 00:07:17;;;;;;;;;;;;;;;13.72;100.00;95796.44;1053054;28;19970;-67
2021/08/04 00:07:47;;;;;;;;;;;;;;;13.71;100.00;95800.19;1053042;28;19916;-67
2021/08/04 00:08:18;;;;;;;;;;;;;;;13.69;100.00;95788.94;1053093;28;19908;-69
2021/08/04 00:08:48;;;;;;;;;;;;;;;13.68;100.00;95782.78;1053114;28;20395;-67
2021/08/04 00:09:18;;;;;;;;;;;;;;;13.65;100.00;95790.63;1053083;28;20392;-67
2021/08/04 00:09:49;;;;;;;;;;;;;;;13.64;100.00;95780.97;1053044;28;19969;-67
2021/08/04 00:10:19;;;;;;;;;;;;;;;13.65;100.00;95783.38;1053033;28;19946;-67
2021/08/04 00:10:49;;;;;;;;;;;;;;;13.66;100.00;95782.25;1048338;28;19924;-67
2021/08/04 00:11:20;;;;;;;;;;;;;;;13.65;100.00;95787.94;1048498;28;19912;-67
2021/08/04 00:11:50;;;;;;;;;;;;;;;13.63;100.00;95787.44;1048513;28;19959;-66
2021/08/04 00:12:20;;;;;;;;;;;;;;;13.65;100.00;95790.63;1048603;28;19919;-67
2021/08/04 00:12:50;;;;;;;;;;;;;;;13.65;100.00;95791.41;1053041;28;19974;-66
2021/08/04 00:13:21;;;;;;;;;;;;;;;13.67;100.00;95793.84;1053012;28;19959;-67
2021/08/04 00:13:51;;;;;;;;;;;;;;;13.69;100.00;95791.63;1053013;28;19912;-67
2021/08/04 00:14:21;;;;;;;;;;;;;;;13.70;100.00;95799.38;1052988;28;19912;-67
2021/08/04 00:14:51;;;;;;;;;;;;;;;13.69;100.00;95795.13;1053030;28;19916;-67
2021/08/04 00:15:22;;;;;;;;;;;;;;;13.66;100.00;95800.28;1053016;28;19961;-66
2021/08/04 00:15:52;;;;;;;;;;;;;;;13.65;100.00;95801.38;1052909;28;20227;-67
2021/08/04 00:16:23;;;;;;;;;;;;;;;13.64;100.00;95805.16;1053029;28;19951;-66
2021/08/04 00:16:53;;;;;;;;;;;;;;;13.65;100.00;95801.38;1053103;28;19963;-67
2021/08/04 00:17:23;;;;;;;;;;;;;;;13.65;100.00;95801.38;1053024;28;19908;-66
2021/08/04 00:17:53;;;;;;;;;;;;;;;13.64;100.00;95799.78;1052971;28;19931;-66
2021/08/04 00:18:24;;;;;;;;;;;;;;;13.65;100.00;95798.69;1053070;28;19966;-67
2021/08/04 00:18:54;;;;;;;;;;;;;;;13.64;100.00;95805.94;1053067;28;20293;-67
2021/08/04 00:19:24;;;;;;;;;;;;;;;13.64;100.00;95802.47;1053064;28;19918;-66
2021/08/04 00:19:54;;;;;;;;;;;;;;;13.64;100.00;95802.47;1048541;28;19943;-67
2021/08/04 00:20:25;;;;;;;;;;;;;;;13.64;100.00;95810.50;1048474;28;19912;-66
2021/08/04 00:20:55;;;;;;;;;;;;;;;13.64;100.00;95805.16;1048152;28;19921;-66
2021/08/04 00:21:25;;;;;;;;;;;;;;;13.65;100.00;95804.84;1048595;28;20347;-66
2021/08/04 00:21:56;;;;;;;;;;;;;;;13.65;100.00;95804.84;1053044;28;19935;-66
2021/08/04 00:22:26;;;;;;;;;;;;;;;13.67;100.00;95810.75;1052627;28;19954;-66
2021/08/04 00:22:56;;;;;;;;;;;;;;;13.69;100.00;95810.44;1053008;28;19965;-67
2021/08/04 00:23:26;;;;;;;;;;;;;;;13.69;100.00;95807.75;1053071;28;19908;-66
2021/08/04 00:23:57;;;;;;;;;;;;;;;13.69;100.00;95808.53;1053034;28;19917;-67
2021/08/04 00:24:27;;;;;;;;;;;;;;;13.71;100.00;95810.94;1053010;28;19970;-66
2021/08/04 00:24:57;;;;;;;;;;;;;;;13.70;100.00;95809.34;1053063;28;20341;-66
2021/08/04 00:25:28;;;;;;;;;;;;;;;13.70;100.00;95812.03;1052992;28;19916;-67
2021/08/04 00:25:58;;;;;;;;;;;;;;;13.69;100.00;95811.22;1053045;28;19999;-67
2021/08/04 00:26:28;;;;;;;;;;;;;;;13.70;100.00;95812.03;1053013;28;19913;-66
2021/08/04 00:26:59;;;;;;;;;;;;;;;13.71;100.00;95819.78;1053040;28;19915;-66
2021/08/04 00:27:29;;;;;;;;;;;;;;;13.71;100.00;95814.41;1052941;28;19912;-66
2021/08/04 00:28:00;;;;;;;;;;;;;;;13.72;100.00;95815.22;1052981;28;19912;-66
2021/08/04 00:28:30;;;;;;;;;;;;;;;13.72;100.00;95813.34;1052977;28;19951;-66
2021/08/04 00:29:00;;;;;;;;;;;;;;;13.74;100.00;95819.19;1053016;28;19908;-66
2021/08/04 00:29:30;;;;;;;;;;;;;;;13.74;100.00;95818.41;1053022;28;19951;-66
2021/08/04 00:30:01;;;;;;;;;;;;;;;13.73;100.00;95820.31;1052990;28;19916;-66
2021/08/04 00:30:31;;;;;;;;;;;;;;;13.71;100.00;95817.09;1052642;28;20357;-67
2021/08/04 00:31:01;;;;;;;;;;;;;;;13.71;100.00;95816.31;1053012;28;20030;-67
2021/08/04 00:31:32;;;;;;;;;;;;;;;13.71;100.00;95808.25;1053036;28;19912;-67
2021/08/04 00:32:02;;;;;;;;;;;;;;;13.70;100.00;95809.34;1053039;28;19996;-66
2021/08/04 00:32:32;;;;;;;;;;;;;;;13.65;100.00;95809.41;1052968;28;19920;-66
2021/08/04 00:33:03;;;;;;;;;;;;;;;13.64;100.00;95807.84;1052965;28;19908;-66
2021/08/04 00:33:33;;;;;;;;;;;;;;;13.64;100.00;95805.94;1052995;28;19912;-66
2021/08/04 00:34:03;;;;;;;;;;;;;;;13.64;100.00;95805.16;1053005;28;19919;-67
2021/08/04 00:34:33;;;;;;;;;;;;;;;13.64;100.00;95807.84;1052967;28;19919;-67
2021/08/04 00:35:04;;;;;;;;;;;;;;;13.63;100.00;95806.25;1052824;28;19961;-67
2021/08/04 00:35:34;;;;;;;;;;;;;;;13.62;100.00;95801.97;1048390;28;19909;-67
2021/08/04 00:36:05;;;;;;;;;;;;;;;13.61;100.00;95805.72;1048505;28;19909;-67
2021/08/04 00:36:35;;;;;;;;;;;;;;;13.60;100.00;95812.97;1048598;28;20069;-67
2021/08/04 00:37:05;;;;;;;;;;;;;;;13.58;100.00;95809.00;1048505;28;19905;-67
2021/08/04 00:37:35;;;;;;;;;;;;;;;13.57;100.00;95815.47;1052921;28;19905;-67
2021/08/04 00:38:12;;;;;;;;;;;;;;;13.58;100.00;95811.69;1053008;28;20304;-67
2021/08/04 00:38:42;;;;;;;;;;;;;;;13.56;100.00;95809.28;1052929;28;19920;-67
2021/08/04 00:39:12;;;;;;;;;;;;;;;13.56;100.00;95813.84;1052965;28;19998;-67
2021/08/04 00:39:43;;;;;;;;;;;;;;;13.58;100.00;95817.06;1053080;28;20292;-67
2021/08/04 00:40:13;;;;;;;;;;;;;;;13.59;100.00;95811.38;1053040;28;20003;-67
2021/08/04 00:40:43;;;;;;;;;;;;;;;13.59;100.00;95813.28;1052618;28;19922;-67
2021/08/04 00:41:13;;;;;;;;;;;;;;;13.60;100.00;95817.56;1053014;28;19951;-67
2021/08/04 00:41:44;;;;;;;;;;;;;;;13.60;100.00;95818.34;1053717;28;19920;-67
2021/08/04 00:42:18;;;;;;;;;;;;;;;13.59;100.00;95818.66;1053714;28;19904;-67
2021/08/04 00:42:48;;;;;;;;;;;;;;;13.61;100.00;95816.47;1053770;28;20391;-67
2021/08/04 00:43:18;;;;;;;;;;;;;;;13.58;100.00;95823.22;1053633;28;19905;-67
2021/08/04 00:43:49;;;;;;;;;;;;;;;13.59;100.00;95815.97;1053550;28;19938;-67
2021/08/04 00:44:19;;;;;;;;;;;;;;;13.57;100.00;95820.84;1053690;28;20394;-67
2021/08/04 00:44:49;;;;;;;;;;;;;;;13.56;100.00;95819.22;1053685;28;19963;-67
2021/08/04 00:45:19;;;;;;;;;;;;;;;13.55;100.00;95817.63;1053413;28;19905;-67
2021/08/04 00:45:50;;;;;;;;;;;;;;;13.56;100.00;95819.22;1053684;28;19916;-66
2021/08/04 00:46:20;;;;;;;;;;;;;;;13.55;100.00;95815.75;1053717;28;19969;-67
2021/08/04 00:46:50;;;;;;;;;;;;;;;13.56;100.00;95819.22;1053659;28;20376;-67
2021/08/04 00:47:20;;;;;;;;;;;;;;;13.56;100.00;95820.03;1049166;28;19919;-66
2021/08/04 00:47:51;;;;;;;;;;;;;;;13.55;100.00;95821.13;1049249;28;19915;-67
2021/08/04 00:48:21;;;;;;;;;;;;;;;13.56;100.00;95816.53;1049310;28;19976;-67
2021/08/04 00:48:52;;;;;;;;;;;;;;;13.56;100.00;95822.72;1044912;28;19917;-67
2021/08/04 00:49:22;;;;;;;;;;;;;;;13.59;100.00;95821.34;1049099;28;19951;-66
2021/08/04 00:49:52;;;;;;;;;;;;;;;13.57;100.00;95821.63;1045010;28;19916;-67
2021/08/04 00:50:22;;;;;;;;;;;;;;;13.57;100.00;95815.47;1045095;28;20422;-66
2021/08/04 00:50:53;;;;;;;;;;;;;;;13.57;100.00;95815.47;1048956;28;19921;-67
2021/08/04 00:51:23;;;;;;;;;;;;;;;13.57;100.00;95818.97;1049179;28;19908;-67
2021/08/04 00:51:53;;;;;;;;;;;;;;;13.57;100.00;95815.47;1053663;28;19920;-67
2021/08/04 00:52:24;;;;;;;;;;;;;;;13.56;100.00;95814.66;1053720;28;19915;-67
2021/08/04 00:52:54;;;;;;;;;;;;;;;13.57;100.00;95816.28;1053712;28;19920;-67
2021/08/04 00:53:25;;;;;;;;;;;;;;;13.59;100.00;95815.97;1053675;28;19961;-67
2021/08/04 00:53:55;;;;;;;;;;;;;;;13.59;100.00;95821.34;1049096;28;19913;-67
2021/08/04 00:54:25;;;;;;;;;;;;;;;13.62;100.00;95812.72;1049223;28;19912;-68
2021/08/04 00:54:56;;;;;;;;;;;;;;;13.62;100.00;95815.41;1045010;28;19913;-67
2021/08/04 00:55:26;;;;;;;;;;;;;;;13.62;100.00;95818.88;1045113;28;19959;-67
2021/08/04 00:55:57;;;;;;;;;;;;;;;13.63;100.00;95809.72;1049051;28;19978;-67
2021/08/04 00:56:28;;;;;;;;;;;;;;;13.64;100.00;95808.63;1049391;28;19916;-67
2021/08/04 00:56:58;;;;;;;;;;;;;;;13.65;100.00;95807.53;1053640;28;19916;-67
2021/08/04 00:57:28;;;;;;;;;;;;;;;13.66;100.00;95809.13;1053717;28;19923;-67
2021/08/04 00:57:58;;;;;;;;;;;;;;;13.68;100.00;95811.53;1053642;28;19967;-67
2021/08/04 00:58:30;;;;;;;;;;;;;;;13.65;100.00;95810.22;1053784;28;19919;-67
2021/08/04 00:59:00;;;;;;;;;;;;;;;13.67;100.00;95810.75;1055257;28;20376;-67
2021/08/04 00:59:31;;;;;;;;;;;;;;;13.69;100.00;95807.75;1051090;28;19921;-67
2021/08/04 01:00:02;;;;;;;;;;;;;;;13.68;100.00;95806.16;1050535;28;19912;-67
2021/08/04 01:00:32;;;;;;;;;;;;;;;13.67;100.00;95805.38;1049422;28;19912;-68
2021/08/04 01:01:32;;;;;;;;;;;;;;;13.67;100.00;95801.88;1044890;28;19925;-67
2021/08/04 01:02:07;;;;;;;;;;;;;;;13.69;100.00;95805.06;1050462;28;19993;-67
2021/08/04 01:02:39;;;;;;;;;;;;;;;13.66;100.00;95802.94;1047066;28;19901;-68
2021/08/04 01:03:09;;;;;;;;;;;;;;;13.67;100.00;95807.25;1055147;28;19916;-67
2021/08/04 01:03:43;;;;;;;;;;;;;;;13.66;100.00;95802.94;1050901;28;20393;-67
2021/08/04 01:04:34;;;;;;;;;;;;;;;13.67;100.00;95808.06;1051258;28;19912;-67
2021/08/04 01:05:05;;;;;;;;;;;;;;;13.69;100.00;95805.06;1051736;28;19923;-68
2021/08/04 01:05:41;;;;;;;;;;;;;;;13.71;100.00;95805.56;1054466;28;19916;-67
2021/08/04 01:06:18;;;;;;;;;;;;;;;13.69;100.00;95802.38;1050674;28;19917;-67
2021/08/04 01:07:08;;;;;;;;;;;;;;;13.69;100.00;95802.38;1050581;28;19920;-68
2021/08/04 01:07:41;;;;;;;;;;;;;;;13.70;100.00;95804.75;1050885;28;19913;-71
2021/08/04 01:08:13;;;;;;;;;;;;;;;13.70;100.00;95803.97;1055026;28;19913;-68
2021/08/04 01:08:47;;;;;;;;;;;;;;;13.68;100.00;95798.91;1051273;28;19931;-68
2021/08/04 01:09:17;;;;;;;;;;;;;;;13.70;100.00;95801.28;1051242;28;19919;-68
2021/08/04 01:09:49;;;;;;;;;;;;;;;13.69;100.00;95797.00;1053150;28;19915;-68
2021/08/04 01:10:28;;;;;;;;;;;;;;;13.69;100.00;95799.69;1052059;28;19995;-67
2021/08/04 01:10:58;;;;;;;;;;;;;;;13.70;100.00;95803.97;1049163;28;20003;-67
2021/08/04 01:11:32;;;;;;;;;;;;;;;13.68;100.00;95801.59;1043822;28;19923;-67
2021/08/04 01:12:03;;;;;;;;;;;;;;;13.67;100.00;95807.25;1042676;28;19917;-70
2021/08/04 01:12:40;;;;;;;;;;;;;;;13.67;100.00;95796.50;1047293;28;20384;-67
2021/08/04 01:13:14;;;;;;;;;;;;;;;13.67;100.00;95799.19;1054541;28;19982;-68
2021/08/04 01:13:46;;;;;;;;;;;;;;;13.65;100.00;95796.78;1050963;28;19912;-68
2021/08/04 01:14:19;;;;;;;;;;;;;;;13.65;100.00;95796.00;1049516;28;19919;-67
2021/08/04 01:14:51;;;;;;;;;;;;;;;13.66;100.00;95800.28;1046621;28;19909;-67
2021/08/04 01:15:23;;;;;;;;;;;;;;;13.64;100.00;95797.88;1043141;28;19913;-67
2021/08/04 01:15:56;;;;;;;;;;;;;;;13.66;100.00;95801.06;1051035;28;19912;-67
2021/08/04 01:16:46;;;;;;;;;;;;;;;13.66;100.00;95795.69;1050700;28;19919;-67
2021/08/04 01:17:18;;;;;;;;;;;;;;;13.64;100.00;95797.09;1053946;28;19916;-70
2021/08/04 01:17:49;;;;;;;;;;;;;;;13.64;100.00;95800.56;1047749;28;19940;-67
2021/08/04 01:18:23;;;;;;;;;;;;;;;13.63;100.00;95795.50;1046996;28;19916;-67
2021/08/04 01:18:55;;;;;;;;;;;;;;;13.63;100.00;95793.63;1046598;28;19936;-66
2021/08/04 01:19:34;;;;;;;;;;;;;;;13.64;100.00;95797.88;1046377;28;19913;-67
2021/08/04 01:20:11;;;;;;;;;;;;;;;13.65;100.00;95793.31;1046932;28;19913;-67
2021/08/04 01:20:41;;;;;;;;;;;;;;;13.64;100.00;95792.50;1047417;28;19912;-66
2021/08/04 01:21:11;;;;;;;;;;;;;;;13.64;100.00;95795.19;1045593;28;19943;-66
2021/08/04 01:21:45;;;;;;;;;;;;;;;13.64;100.00;95789.03;1051663;28;19908;-66
2021/08/04 01:22:34;;;;;;;;;;;;;;;13.63;100.00;95788.25;1056026;28;19916;-67
2021/08/04 01:23:04;;;;;;;;;;;;;;;13.58;100.00;95790.22;1055867;28;19934;-66
2021/08/04 01:23:37;;;;;;;;;;;;;;;13.57;100.00;95788.63;1055972;28;19934;-66
2021/08/04 01:24:15;;;;;;;;;;;;;;;13.55;100.00;95793.47;1043705;28;19924;-66
2021/08/04 01:24:45;;;;;;;;;;;;;;;13.57;100.00;95788.63;1042576;28;19963;-66
2021/08/04 01:25:16;;;;;;;;;;;;;;;13.57;100.00;95788.63;1042449;28;19980;-66
2021/08/04 01:25:58;;;;;;;;;;;;;;;13.59;100.00;95786.44;1043464;28;20450;-66
2021/08/04 01:26:29;;;;;;;;;;;;;;;13.58;100.00;95790.22;1047164;28;19920;-67
2021/08/04 01:26:59;;;;;;;;;;;;;;;13.58;100.00;95787.53;1049432;28;20361;-67
2021/08/04 01:27:30;;;;;;;;;;;;;;;13.59;100.00;95787.22;1053379;28;19927;-66
2021/08/04 01:28:16;;;;;;;;;;;;;;;13.60;100.00;95788.81;1049129;28;20447;-67
2021/08/04 01:28:46;;;;;;;;;;;;;;;13.63;100.00;95790.94;1044958;28;19920;-66
2021/08/04 01:29:18;;;;;;;;;;;;;;;13.63;100.00;95785.56;1038651;28;19917;-66
2021/08/04 01:29:48;;;;;;;;;;;;;;;13.62;100.00;95792.03;1039136;28;19920;-66
2021/08/04 01:30:18;;;;;;;;;;;;;;;13.62;100.00;95785.84;1044979;28;19952;-66
2021/08/04 01:30:50;;;;;;;;;;;;;;;13.61;100.00;95784.25;1049533;28;19947;-67
2021/08/04 01:31:25;;;;;;;;;;;;;;;13.58;100.00;95784.84;1049107;28;19913;-67
2021/08/04 01:31:56;;;;;;;;;;;;;;;13.56;100.00;95784.31;1048303;28;19913;-66
2021/08/04 01:32:27;;;;;;;;;;;;;;;13.57;100.00;95785.94;1045004;28;19917;-66
2021/08/04 01:32:57;;;;;;;;;;;;;;;13.59;100.00;95783.75;1049793;28;19909;-66
2021/08/04 01:33:28;;;;;;;;;;;;;;;13.58;100.00;95791.00;1049077;28;19924;-67
2021/08/04 01:33:58;;;;;;;;;;;;;;;13.58;100.00;95784.84;1049077;28;20313;-66
2021/08/04 01:34:28;;;;;;;;;;;;;;;13.58;100.00;95787.53;1049047;28;20014;-66
2021/08/04 01:34:59;;;;;;;;;;;;;;;13.55;100.00;95788.09;1044751;28;19917;-68
2021/08/04 01:35:29;;;;;;;;;;;;;;;13.52;100.00;95789.50;1044832;28;19909;-66
2021/08/04 01:35:59;;;;;;;;;;;;;;;13.51;100.00;95783.34;1044878;28;19940;-66
2021/08/04 01:36:30;;;;;;;;;;;;;;;13.52;100.00;95790.28;1044976;28;19913;-66
2021/08/04 01:37:00;;;;;;;;;;;;;;;13.53;100.00;95786.50;1044947;28;19905;-67
2021/08/04 01:37:31;;;;;;;;;;;;;;;13.53;100.00;95791.09;1053211;28;20224;-67
2021/08/04 01:38:01;;;;;;;;;;;;;;;13.52;100.00;95786.81;1053246;28;20337;-67
2021/08/04 01:38:31;;;;;;;;;;;;;;;13.50;100.00;95784.41;1049055;28;19927;-67
2021/08/04 01:39:02;;;;;;;;;;;;;;;13.50;100.00;95787.09;1048993;28;19997;-67
2021/08/04 01:39:33;;;;;;;;;;;;;;;13.47;100.00;95787.69;1044883;28;19905;-67
2021/08/04 01:40:03;;;;;;;;;;;;;;;13.49;100.00;95787.38;1044934;28;20362;-67
2021/08/04 01:40:33;;;;;;;;;;;;;;;13.49;100.00;95788.19;1044790;28;19940;-67
2021/08/04 01:41:04;;;;;;;;;;;;;;;13.51;100.00;95787.88;1051589;28;19920;-67
2021/08/04 01:41:34;;;;;;;;;;;;;;;13.52;100.00;95789.50;1049024;28;19908;-67
2021/08/04 01:42:05;;;;;;;;;;;;;;;13.53;100.00;95780.34;1053261;28;20011;-67
2021/08/04 01:42:35;;;;;;;;;;;;;;;13.53;100.00;95783.03;1048947;28;19904;-67
2021/08/04 01:43:06;;;;;;;;;;;;;;;13.49;100.00;95782.03;1044899;28;20373;-67
2021/08/04 01:43:37;;;;;;;;;;;;;;;13.48;100.00;95781.22;1049151;28;19912;-67
2021/08/04 01:44:08;;;;;;;;;;;;;;;13.48;100.00;95781.22;1053482;28;20364;-67
2021/08/04 01:44:38;;;;;;;;;;;;;;;13.49;100.00;95788.19;1057302;28;19915;-67
2021/08/04 01:45:08;;;;;;;;;;;;;;;13.50;100.00;95784.41;1053204;28;19904;-67
2021/08/04 01:45:39;;;;;;;;;;;;;;;13.52;100.00;95778.75;1048902;28;19917;-67
2021/08/04 01:46:09;;;;;;;;;;;;;;;13.51;100.00;95775.28;1044853;28;20333;-67
2021/08/04 01:46:39;;;;;;;;;;;;;;;13.52;100.00;95784.94;1044873;28;19938;-67
2021/08/04 01:47:10;;;;;;;;;;;;;;;13.53;100.00;95783.84;1040505;28;19932;-67
2021/08/04 01:47:40;;;;;;;;;;;;;;;13.51;100.00;95780.66;1043097;28;19924;-67
2021/08/04 01:48:10;;;;;;;;;;;;;;;13.51;100.00;95775.28;1050901;28;19952;-67
2021/08/04 01:48:41;;;;;;;;;;;;;;;13.50;100.00;95786.28;1046886;28;20413;-67
2021/08/04 01:49:12;;;;;;;;;;;;;;;13.48;100.00;95783.91;1053937;28;19986;-67
2021/08/04 01:49:43;;;;;;;;;;;;;;;13.46;100.00;95786.09;1048764;28;19912;-67
2021/08/04 01:50:13;;;;;;;;;;;;;;;13.49;100.00;95787.38;1049226;28;19951;-67
2021/08/04 01:50:43;;;;;;;;;;;;;;;13.49;100.00;95785.50;1053201;28;19912;-67
2021/08/04 01:51:14;;;;;;;;;;;;;;;13.49;100.00;95780.13;1049208;28;19912;-67
2021/08/04 01:51:44;;;;;;;;;;;;;;;13.48;100.00;95786.59;1048859;28;20359;-67
2021/08/04 01:52:15;;;;;;;;;;;;;;;13.49;100.00;95780.13;1040622;28;19913;-67
2021/08/04 01:52:45;;;;;;;;;;;;;;;13.50;100.00;95778.25;1044367;28;19919;-67
2021/08/04 01:53:15;;;;;;;;;;;;;;;13.51;100.00;95785.19;1048492;28;20427;-67
2021/08/04 01:53:46;;;;;;;;;;;;;;;13.51;100.00;95780.66;1053193;28;20012;-67
2021/08/04 01:54:17;;;;;;;;;;;;;;;13.52;100.00;95779.56;1052967;28;19912;-68
2021/08/04 01:54:47;;;;;;;;;;;;;;;13.53;100.00;95783.84;1048989;28;20305;-67
2021/08/04 01:55:17;;;;;;;;;;;;;;;13.53;100.00;95783.84;1048991;28;19912;-67
2021/08/04 01:55:48;;;;;;;;;;;;;;;13.51;100.00;95788.72;1049027;28;19983;-67
2021/08/04 01:56:18;;;;;;;;;;;;;;;13.52;100.00;95789.50;1049860;28;19943;-67
2021/08/04 01:56:48;;;;;;;;;;;;;;;13.52;100.00;95779.56;1049703;28;19923;-67
2021/08/04 01:57:18;;;;;;;;;;;;;;;13.50;100.00;95778.25;1053372;28;20357;-67
2021/08/04 01:57:49;;;;;;;;;;;;;;;13.46;100.00;95783.41;1053400;28;19912;-67
2021/08/04 01:58:19;;;;;;;;;;;;;;;13.49;100.00;95779.34;1054520;28;19912;-67
2021/08/04 01:58:49;;;;;;;;;;;;;;;13.47;100.00;95785.00;1053743;28;19916;-67
2021/08/04 01:59:20;;;;;;;;;;;;;;;13.46;100.00;95786.09;1053372;28;19920;-67
2021/08/04 01:59:50;;;;;;;;;;;;;;;13.47;100.00;95779.63;1053350;28;20441;-67
2021/08/04 02:00:20;;;;;;;;;;;;;;;13.48;100.00;95788.50;1054742;28;19908;-67
2021/08/04 02:00:51;;;;;;;;;;;;;;;13.47;100.00;95787.69;1053132;28;19943;-67
2021/08/04 02:01:25;;;;;;;;;;;;;;;13.44;100.00;95785.59;1053044;28;19945;-67
2021/08/04 02:02:13;;;;;;;;;;;;;;;13.42;100.00;95789.66;1050015;28;20381;-66
2021/08/04 02:02:43;;;;;;;;;;;;;;;13.44;100.00;95787.47;1052204;28;19920;-67
2021/08/04 02:03:13;;;;;;;;;;;;;;;13.44;100.00;95779.41;1053305;28;20393;-67
2021/08/04 02:03:44;;;;;;;;;;;;;;;13.46;100.00;95780.72;1053501;28;19916;-67
2021/08/04 02:04:14;;;;;;;;;;;;;;;13.43;100.00;95778.63;1053436;28;19908;-67
2021/08/04 02:04:44;;;;;;;;;;;;;;;13.42;100.00;95782.41;1053422;28;19908;-67
2021/08/04 02:05:14;;;;;;;;;;;;;;;13.44;100.00;95774.84;1053362;28;19951;-67
2021/08/04 02:05:45;;;;;;;;;;;;;;;13.44;100.00;95782.09;1053439;28;19912;-67
2021/08/04 02:06:29;;;;;;;;;;;;;;;13.43;100.00;95780.50;1053411;28;19965;-67
2021/08/04 02:07:02;;;;;;;;;;;;;;;13.45;100.00;95775.63;1051674;28;19924;-67
2021/08/04 02:07:37;;;;;;;;;;;;;;;13.46;100.00;95778.06;1053027;28;19919;-66
2021/08/04 02:08:15;;;;;;;;;;;;;;;13.47;100.00;95776.16;1053169;28;19939;-67
2021/08/04 02:09:06;;;;;;;;;;;;;;;13.47;100.00;95779.63;1051298;28;19912;-67
2021/08/04 02:09:37;;;;;;;;;;;;;;;13.46;100.00;95782.59;1045026;28;20007;-67
2021/08/04 02:10:08;;;;;;;;;;;;;;;13.45;100.00;95775.63;1048534;28;19908;-67
2021/08/04 02:10:45;;;;;;;;;;;;;;;13.47;100.00;95784.22;1052106;28;20418;-67
2021/08/04 02:11:18;;;;;;;;;;;;;;;13.43;100.00;95777.84;1048864;28;19916;-67
2021/08/04 02:11:53;;;;;;;;;;;;;;;13.43;100.00;95780.50;1044820;28;20046;-67
2021/08/04 02:12:23;;;;;;;;;;;;;;;13.41;100.00;95775.44;1040658;28;19962;-67
2021/08/04 02:12:58;;;;;;;;;;;;;;;13.38;100.00;95777.91;1041693;28;19971;-67
2021/08/04 02:13:48;;;;;;;;;;;;;;;13.39;100.00;95776.81;1041910;28;19916;-67
2021/08/04 02:14:20;;;;;;;;;;;;;;;13.38;100.00;95781.38;1048135;28;19923;-67
2021/08/04 02:15:05;;;;;;;;;;;;;;;13.36;100.00;95772.84;1044718;28;20317;-67
2021/08/04 02:15:36;;;;;;;;;;;;;;;13.35;100.00;95771.22;1044683;28;19919;-67
2021/08/04 02:16:09;;;;;;;;;;;;;;;13.36;100.00;95770.16;1036574;28;19924;-67
2021/08/04 02:16:56;;;;;;;;;;;;;;;13.39;100.00;95780.28;1034905;28;20348;-66
2021/08/04 02:17:30;;;;;;;;;;;;;;;13.40;100.00;95776.50;1039256;28;19920;-66
2021/08/04 02:18:01;;;;;;;;;;;;;;;13.40;100.00;95770.34;1047109;28;20369;-67
2021/08/04 02:18:31;;;;;;;;;;;;;;;13.42;100.00;95777.03;1052125;28;20375;-67
2021/08/04 02:19:12;;;;;;;;;;;;;;;13.43;100.00;95775.16;1053094;28;19916;-67
2021/08/04 02:19:45;;;;;;;;;;;;;;;13.42;100.00;95774.34;1048829;28;20018;-67
2021/08/04 02:20:27;;;;;;;;;;;;;;;13.43;100.00;95772.47;1048936;28;20446;-67
2021/08/04 02:20:58;;;;;;;;;;;;;;;13.39;100.00;95777.59;1048863;28;19912;-67
2021/08/04 02:21:28;;;;;;;;;;;;;;;13.38;100.00;95777.91;1055220;28;19920;-67
2021/08/04 02:22:02;;;;;;;;;;;;;;;13.39;100.00;95771.44;1057215;28;20408;-67
2021/08/04 02:22:35;;;;;;;;;;;;;;;13.38;100.00;95775.22;1057242;28;19912;-67
2021/08/04 02:23:18;;;;;;;;;;;;;;;13.39;100.00;95776.81;1052115;28;19920;-67
2021/08/04 02:23:48;;;;;;;;;;;;;;;13.40;100.00;95781.88;1048850;28;19920;-68
2021/08/04 02:24:19;;;;;;;;;;;;;;;13.38;100.00;95776.03;1048861;28;19955;-67
2021/08/04 02:24:49;;;;;;;;;;;;;;;13.40;100.00;95775.72;1048954;28;19920;-67
2021/08/04 02:25:31;;;;;;;;;;;;;;;13.40;100.00;95776.50;1048762;28;20308;-68
2021/08/04 02:26:12;;;;;;;;;;;;;;;13.43;100.00;95775.94;1048874;28;19957;-67
2021/08/04 02:26:42;;;;;;;;;;;;;;;13.45;100.00;95772.94;1048839;28;19956;-67
2021/08/04 02:27:12;;;;;;;;;;;;;;;13.45;100.00;95776.44;1048832;28;19904;-70
2021/08/04 02:27:43;;;;;;;;;;;;;;;13.46;100.00;95772.69;1048891;28;19920;-67
2021/08/04 02:28:15;;;;;;;;;;;;;;;13.47;100.00;95773.47;1048720;28;20277;-67
2021/08/04 02:28:46;;;;;;;;;;;;;;;13.45;100.00;95776.44;1049020;28;19916;-67
2021/08/04 02:29:17;;;;;;;;;;;;;;;13.44;100.00;95768.69;1049288;28;20288;-68
2021/08/04 02:29:47;;;;;;;;;;;;;;;13.41;100.00;95775.44;1053073;28;19916;-67
2021/08/04 02:30:18;;;;;;;;;;;;;;;13.38;100.00;95769.84;1052917;28;19904;-68
2021/08/04 02:30:48;;;;;;;;;;;;;;;13.36;100.00;95772.84;1048917;28;19967;-68
2021/08/04 02:31:19;;;;;;;;;;;;;;;13.36;100.00;95772.84;1048733;28;19905;-68
2021/08/04 02:31:49;;;;;;;;;;;;;;;13.37;100.00;95774.44;1053038;28;19916;-68
2021/08/04 02:32:20;;;;;;;;;;;;;;;13.38;100.00;95767.19;1048909;28;20598;-68
2021/08/04 02:32:50;;;;;;;;;;;;;;;13.36;100.00;95774.69;1040718;28;20397;-72
2021/08/04 02:33:21;;;;;;;;;;;;;;;13.34;100.00;95774.22;1044566;28;20388;-73
2021/08/04 02:33:51;;;;;;;;;;;;;;;13.34;100.00;95766.94;1040711;28;20301;-78
2021/08/04 02:34:21;;;;;;;;;;;;;;;13.36;100.00;95767.47;1040699;28;19949;-77
2021/08/04 02:34:52;;;;;;;;;;;;;;;13.36;100.00;95772.84;1048914;28;19964;-78
2021/08/04 02:35:22;;;;;;;;;;;;;;;13.39;100.00;95774.94;1044233;28;19920;-77
2021/08/04 02:35:53;;;;;;;;;;;;;;;13.41;100.00;95774.63;1044776;28;20425;-78
2021/08/04 02:36:23;;;;;;;;;;;;;;;13.40;100.00;95776.50;1048862;28;20329;-78
2021/08/04 02:36:53;;;;;;;;;;;;;;;13.43;100.00;95777.84;1048945;28;19990;-78
2021/08/04 02:37:24;;;;;;;;;;;;;;;13.42;100.00;95776.25;1053383;28;20292;-77
2021/08/04 02:37:54;;;;;;;;;;;;;;;13.43;100.00;95773.25;1053302;28;19916;-78
2021/08/04 02:38:24;;;;;;;;;;;;;;;13.42;100.00;95768.97;1048897;28;20281;-78
2021/08/04 02:38:56;;;;;;;;;;;;;;;13.43;100.00;95777.84;1051648;28;19916;-78
2021/08/04 02:39:26;;;;;;;;;;;;;;;13.44;100.00;95774.06;1048873;28;19939;-77
2021/08/04 02:39:56;;;;;;;;;;;;;;;13.43;100.00;95772.47;1044869;28;20377;-78
2021/08/04 02:40:27;;;;;;;;;;;;;;;13.45;100.00;95771.06;1048574;28;19913;-78
2021/08/04 02:40:57;;;;;;;;;;;;;;;13.47;100.00;95771.59;1044670;28;19923;-77
2021/08/04 02:41:29;;;;;;;;;;;;;;;13.48;100.00;95769.69;1040622;28;19917;-77
2021/08/04 02:41:59;;;;;;;;;;;;;;;13.46;100.00;95772.69;1048735;28;20007;-77
2021/08/04 02:42:29;;;;;;;;;;;;;;;13.45;100.00;95767.59;1048776;28;20296;-77
2021/08/04 02:43:00;;;;;;;;;;;;;;;13.45;100.00;95767.59;1048834;28;19959;-77
2021/08/04 02:43:30;;;;;;;;;;;;;;;13.45;100.00;95765.69;1048725;28;19913;-77